createdAt,value
2018-03-11T00:00:28.579Z,9.83
2018-03-11T00:02:56.106Z,8.07
2018-03-11T00:05:23.622Z,8.47
2018-03-11T00:07:51.177Z,8.83
2018-03-11T00:10:19.474Z,9.03
2018-03-11T00:12:47.747Z,9.80
2018-03-11T00:15:15.259Z,8.50
2018-03-11T00:17:42.750Z,9.93
2018-03-11T00:20:10.253Z,9.17
2018-03-11T00:22:37.749Z,11.10
2018-03-11T00:25:05.271Z,9.03
2018-03-11T00:27:32.814Z,9.37
2018-03-11T00:30:00.335Z,9.10
2018-03-11T00:32:27.847Z,8.50
2018-03-11T00:34:55.346Z,9.90
2018-03-11T00:37:22.854Z,9.77
2018-03-11T00:39:50.361Z,8.20
2018-03-11T00:42:17.868Z,8.17
2018-03-11T00:44:45.371Z,8.60
2018-03-11T00:47:13.669Z,9.20
2018-03-11T00:49:42.005Z,8.90
2018-03-11T00:52:09.568Z,8.47
2018-03-11T00:54:37.102Z,9.20
2018-03-11T00:57:05.383Z,8.17
2018-03-11T00:59:33.684Z,6.93
2018-03-11T01:02:02.025Z,7.40
2018-03-11T01:04:29.564Z,8.40
2018-03-11T01:06:57.102Z,8.53
2018-03-11T01:09:25.396Z,8.53
2018-03-11T01:11:53.689Z,9.67
2018-03-11T01:14:21.981Z,10.20
2018-03-11T01:16:50.247Z,9.13
2018-03-11T01:19:17.755Z,9.50
2018-03-11T01:21:45.295Z,8.43
2018-03-11T01:24:13.599Z,9.27
2018-03-11T01:26:41.893Z,8.60
2018-03-11T01:29:09.402Z,9.60
2018-03-11T01:31:36.909Z,8.20
2018-03-11T01:34:04.406Z,8.03
2018-03-11T01:36:31.917Z,8.63
2018-03-11T01:38:59.465Z,8.90
2018-03-11T01:41:26.997Z,9.47
2018-03-11T01:43:55.301Z,9.30
2018-03-11T01:46:23.586Z,9.87
2018-03-11T01:48:51.103Z,9.53
2018-03-11T01:51:18.623Z,9.07
2018-03-11T01:53:46.881Z,8.23
2018-03-11T01:56:14.419Z,8.43
2018-03-11T01:58:41.950Z,8.17
2018-03-11T02:01:10.252Z,8.63
2018-03-11T02:03:38.552Z,7.10
2018-03-11T02:06:06.059Z,7.50
2018-03-11T02:08:33.607Z,7.33
2018-03-11T02:11:01.134Z,7.50
2018-03-11T02:13:28.655Z,7.90
2018-03-11T02:15:56.209Z,7.47
2018-03-11T02:18:23.726Z,6.93
2018-03-11T02:20:51.262Z,7.40
2018-03-11T02:23:18.784Z,6.70
2018-03-11T02:25:46.346Z,6.60
2018-03-11T02:28:13.845Z,7.23
2018-03-11T02:30:41.367Z,7.37
2018-03-11T02:33:08.914Z,7.40
2018-03-11T02:35:36.452Z,6.50
2018-03-11T02:38:04.757Z,6.73
2018-03-11T02:40:33.034Z,6.87
2018-03-11T02:43:01.317Z,7.10
2018-03-11T02:45:29.601Z,6.43
2018-03-11T02:47:57.116Z,6.73
2018-03-11T02:50:24.629Z,5.33
2018-03-11T02:52:52.158Z,7.00
2018-03-11T02:55:19.665Z,6.53
2018-03-11T02:57:47.206Z,6.63
2018-03-11T03:00:14.712Z,6.43
2018-03-11T03:02:42.199Z,5.50
2018-03-11T03:05:10.493Z,5.93
2018-03-11T03:07:38.754Z,7.13
2018-03-11T03:10:07.788Z,6.07
2018-03-11T03:12:36.068Z,7.03
2018-03-11T03:15:03.564Z,6.57
2018-03-11T03:17:31.101Z,7.63
2018-03-11T03:19:58.607Z,6.23
2018-03-11T03:22:26.131Z,7.13
2018-03-11T03:24:53.664Z,6.97
2018-03-11T03:27:21.181Z,6.20
2018-03-11T03:29:48.664Z,6.77
2018-03-11T03:32:16.951Z,6.33
2018-03-11T03:34:45.230Z,6.80
2018-03-11T03:37:12.723Z,7.47
2018-03-11T03:39:40.990Z,6.93
2018-03-11T03:42:08.523Z,7.00
2018-03-11T03:44:36.049Z,6.60
2018-03-11T03:47:04.340Z,7.60
2018-03-11T03:49:32.634Z,7.77
2018-03-11T03:52:00.889Z,7.70
2018-03-11T03:54:28.392Z,8.10
2018-03-11T03:56:55.921Z,7.30
2018-03-11T03:59:23.462Z,7.37
2018-03-11T04:01:50.985Z,7.77
2018-03-11T04:04:18.509Z,7.83
2018-03-11T04:06:46.033Z,7.13
2018-03-11T04:09:14.330Z,7.23
2018-03-11T04:11:42.616Z,6.93
2018-03-11T04:14:10.861Z,6.47
2018-03-11T04:16:38.393Z,6.83
2018-03-11T04:19:05.906Z,7.00
2018-03-11T04:21:33.448Z,6.67
2018-03-11T04:24:00.976Z,6.73
2018-03-11T04:26:28.500Z,6.53
2018-03-11T04:28:56.005Z,6.67
2018-03-11T04:31:23.532Z,7.03
2018-03-11T04:33:51.041Z,6.87
2018-03-11T04:36:18.560Z,7.33
2018-03-11T04:38:46.079Z,6.83
2018-03-11T04:41:13.606Z,7.23
2018-03-11T04:43:41.119Z,7.20
2018-03-11T04:46:08.654Z,6.87
2018-03-11T04:48:36.160Z,7.33
2018-03-11T04:51:03.705Z,7.30
2018-03-11T04:53:31.216Z,6.30
2018-03-11T04:55:58.747Z,7.67
2018-03-11T04:58:26.245Z,7.40
2018-03-11T05:00:53.783Z,7.67
2018-03-11T05:03:21.323Z,7.47
2018-03-11T05:05:49.620Z,7.33
2018-03-11T05:08:17.147Z,9.00
2018-03-11T05:10:44.661Z,7.20
2018-03-11T05:13:12.157Z,6.90
2018-03-11T05:15:39.699Z,7.80
2018-03-11T05:18:07.217Z,7.23
2018-03-11T05:20:34.736Z,8.97
2018-03-11T05:23:03.016Z,7.83
2018-03-11T05:25:31.310Z,8.60
2018-03-11T05:27:59.604Z,8.37
2018-03-11T05:30:27.889Z,7.87
2018-03-11T05:32:56.167Z,7.60
2018-03-11T05:35:24.468Z,7.60
2018-03-11T05:37:52.752Z,7.80
2018-03-11T05:40:21.033Z,7.13
2018-03-11T05:42:49.334Z,7.90
2018-03-11T05:45:16.871Z,7.73
2018-03-11T05:47:44.404Z,8.87
2018-03-11T05:50:11.957Z,9.07
2018-03-11T05:52:39.472Z,7.67
2018-03-11T05:55:07.008Z,9.50
2018-03-11T05:57:34.528Z,9.17
2018-03-11T06:00:02.044Z,9.10
2018-03-11T06:02:29.558Z,9.17
2018-03-11T06:04:57.085Z,8.53
2018-03-11T06:07:24.624Z,8.63
2018-03-11T06:09:52.145Z,7.67
2018-03-11T06:12:19.701Z,7.83
2018-03-11T06:14:47.216Z,7.93
2018-03-11T06:17:14.748Z,7.87
2018-03-11T06:19:42.249Z,8.70
2018-03-11T06:22:09.819Z,7.73
2018-03-11T06:24:37.320Z,7.37
2018-03-11T06:27:04.813Z,6.90
2018-03-11T06:29:33.069Z,5.63
2018-03-11T06:32:00.640Z,6.23
2018-03-11T06:34:28.145Z,6.07
2018-03-11T06:36:56.412Z,6.23
2018-03-11T06:39:23.945Z,6.13
2018-03-11T06:41:51.465Z,6.10
2018-03-11T06:44:18.971Z,5.57
2018-03-11T06:46:46.489Z,6.03
2018-03-11T06:49:14.028Z,5.57
2018-03-11T06:51:41.532Z,5.83
2018-03-11T06:54:09.044Z,5.93
2018-03-11T06:56:36.547Z,5.70
2018-03-11T06:59:04.084Z,5.43
2018-03-11T07:01:31.598Z,5.80
2018-03-11T07:03:59.185Z,5.83
2018-03-11T07:06:26.731Z,5.67
2018-03-11T07:08:54.241Z,5.63
2018-03-11T07:11:21.768Z,5.47
2018-03-11T07:13:49.292Z,5.60
2018-03-11T07:16:17.604Z,4.70
2018-03-11T07:18:45.135Z,5.00
2018-03-11T07:21:12.636Z,4.77
2018-03-11T07:23:40.910Z,4.93
2018-03-11T07:26:09.185Z,4.83
2018-03-11T07:28:36.689Z,4.47
2018-03-11T07:31:05.051Z,4.00
2018-03-11T07:33:32.596Z,3.13
2018-03-11T07:36:00.170Z,3.20
2018-03-11T07:38:28.396Z,3.60
2018-03-11T07:40:56.713Z,3.03
2018-03-11T07:43:24.213Z,3.30
2018-03-11T07:45:51.764Z,3.93
2018-03-11T07:48:19.292Z,3.30
2018-03-11T07:50:47.584Z,3.73
2018-03-11T07:53:15.873Z,3.50
2018-03-11T07:55:44.153Z,3.40
2018-03-11T07:58:11.660Z,3.57
2018-03-11T08:00:39.160Z,3.17
2018-03-11T08:03:06.689Z,3.70
2018-03-11T08:05:34.201Z,2.93
2018-03-11T08:08:01.743Z,2.97
2018-03-11T08:10:29.256Z,3.27
2018-03-11T08:12:56.801Z,3.23
2018-03-11T08:15:24.493Z,3.60
2018-03-11T08:17:52.088Z,3.50
2018-03-11T08:20:19.613Z,3.20
2018-03-11T08:22:47.152Z,3.40
2018-03-11T08:25:15.441Z,3.07
2018-03-11T08:27:43.723Z,3.17
2018-03-11T08:30:11.993Z,3.37
2018-03-11T08:32:39.537Z,3.60
2018-03-11T08:35:07.099Z,3.07
2018-03-11T08:37:34.622Z,3.43
2018-03-11T08:40:02.125Z,4.93
2018-03-11T08:42:29.635Z,3.20
2018-03-11T08:44:57.152Z,3.23
2018-03-11T08:47:25.441Z,3.40
2018-03-11T08:49:52.946Z,3.50
2018-03-11T08:52:20.458Z,4.40
2018-03-11T08:54:47.971Z,5.43
2018-03-11T08:57:15.508Z,3.40
2018-03-11T08:59:43.809Z,3.73
2018-03-11T09:02:12.088Z,3.50
2018-03-11T09:04:40.393Z,4.10
2018-03-11T09:07:07.945Z,4.10
2018-03-11T09:09:36.232Z,3.93
2018-03-11T09:12:04.525Z,3.70
2018-03-11T09:14:32.812Z,3.77
2018-03-11T09:17:01.193Z,4.53
2018-03-11T09:19:28.701Z,4.13
2018-03-11T09:21:56.228Z,3.20
2018-03-11T09:24:23.749Z,3.27
2018-03-11T09:26:51.277Z,3.07
2018-03-11T09:29:18.789Z,3.10
2018-03-11T09:31:46.298Z,3.30
2018-03-11T09:34:13.832Z,3.17
2018-03-11T09:36:41.380Z,3.27
2018-03-11T09:39:08.912Z,3.10
2018-03-11T09:41:36.457Z,3.30
2018-03-11T09:44:04.009Z,2.87
2018-03-11T09:46:31.542Z,3.60
2018-03-11T09:48:59.058Z,3.10
2018-03-11T09:51:26.576Z,4.07
2018-03-11T09:53:54.144Z,3.40
2018-03-11T09:56:21.663Z,3.77
2018-03-11T09:58:49.957Z,3.77
2018-03-11T10:01:17.484Z,3.30
2018-03-11T10:03:45.142Z,3.27
2018-03-11T10:06:12.629Z,3.20
2018-03-11T10:08:40.192Z,3.40
2018-03-11T10:11:07.741Z,3.13
2018-03-11T10:16:28.345Z,3.00
2018-03-11T10:18:56.637Z,2.83
2018-03-11T10:21:24.912Z,2.80
2018-03-11T10:23:57.501Z,3.30
2018-03-11T10:26:28.504Z,3.23
2018-03-11T10:28:59.143Z,2.90
2018-03-11T10:31:26.661Z,2.53
2018-03-11T10:36:50.168Z,2.83
2018-03-11T10:39:18.468Z,2.77
2018-03-11T10:41:46.009Z,2.70
2018-03-11T10:44:13.536Z,2.97
2018-03-11T10:46:41.079Z,2.60
2018-03-11T10:49:08.587Z,2.87
2018-03-11T10:51:36.127Z,3.10
2018-03-11T10:54:03.681Z,2.93
2018-03-11T10:56:31.260Z,3.10
2018-03-11T10:58:58.805Z,3.27
2018-03-11T11:01:32.033Z,2.80
2018-03-11T11:04:02.454Z,2.93
2018-03-11T11:06:29.989Z,3.20
2018-03-11T11:08:57.473Z,3.67
2018-03-11T11:11:25.048Z,3.67
2018-03-11T11:13:52.676Z,3.40
2018-03-11T11:16:20.282Z,6.60
2018-03-11T11:18:59.459Z,3.47
2018-03-11T11:21:27.002Z,3.10
2018-03-11T11:23:54.551Z,3.33
2018-03-11T11:26:22.861Z,2.93
2018-03-11T11:29:04.016Z,3.93
2018-03-11T11:31:31.565Z,3.93
2018-03-11T11:33:59.190Z,3.53
2018-03-11T11:36:26.830Z,3.00
2018-03-11T11:38:55.161Z,3.17
2018-03-11T11:41:22.716Z,2.93
2018-03-11T11:43:51.017Z,3.10
2018-03-11T11:46:22.271Z,3.07
2018-03-11T11:49:00.948Z,3.30
2018-03-11T11:54:21.886Z,2.90
2018-03-11T11:56:49.417Z,2.43
2018-03-11T11:59:20.805Z,2.27
2018-03-11T12:01:50.283Z,2.93
2018-03-11T12:04:18.609Z,2.20
2018-03-11T12:06:50.924Z,2.37
2018-03-11T12:09:18.444Z,2.60
2018-03-11T12:11:45.973Z,2.20
2018-03-11T12:14:13.468Z,2.50
2018-03-11T12:16:41.747Z,2.30
2018-03-11T12:19:09.236Z,2.17
2018-03-11T12:21:37.600Z,2.20
2018-03-11T12:24:05.233Z,2.10
2018-03-11T12:26:32.745Z,2.63
2018-03-11T12:29:00.249Z,2.30
2018-03-11T12:31:28.550Z,2.50
2018-03-11T12:33:56.108Z,2.30
2018-03-11T12:36:23.659Z,2.67
2018-03-11T12:41:44.662Z,2.50
2018-03-11T12:44:12.202Z,3.23
2018-03-11T12:46:39.750Z,2.37
2018-03-11T12:49:07.272Z,2.80
2018-03-11T12:51:34.817Z,2.77
2018-03-11T12:54:03.096Z,3.17
2018-03-11T12:56:31.392Z,3.10
2018-03-11T12:58:59.692Z,3.03
2018-03-11T13:01:27.211Z,2.60
2018-03-11T13:03:54.749Z,2.93
2018-03-11T13:06:22.280Z,2.77
2018-03-11T13:08:49.865Z,2.90
2018-03-11T13:11:18.253Z,2.73
2018-03-11T13:13:46.532Z,3.03
2018-03-11T13:16:14.048Z,3.03
2018-03-11T13:18:41.967Z,2.87
2018-03-11T13:21:11.000Z,3.27
2018-03-11T13:23:39.267Z,2.80
2018-03-11T13:26:06.805Z,2.70
2018-03-11T13:28:46.249Z,3.00
2018-03-11T13:31:13.760Z,2.87
2018-03-11T13:33:53.169Z,2.70
2018-03-11T13:36:20.988Z,3.20
2018-03-11T13:39:00.426Z,3.50
2018-03-11T13:41:27.956Z,3.60
2018-03-11T13:43:55.472Z,2.80
2018-03-11T13:46:35.004Z,3.00
2018-03-11T13:49:02.536Z,3.37
2018-03-11T13:51:42.684Z,3.77
2018-03-11T13:54:10.205Z,3.50
2018-03-11T13:56:37.721Z,3.20
2018-03-11T13:59:05.355Z,3.50
2018-03-11T14:01:32.873Z,3.37
2018-03-11T14:04:00.388Z,3.80
2018-03-11T14:06:27.916Z,3.00
2018-03-11T14:08:55.441Z,3.23
2018-03-11T14:11:22.974Z,3.63
2018-03-11T14:13:51.240Z,2.77
2018-03-11T14:16:18.756Z,3.20
2018-03-11T14:18:46.277Z,2.77
2018-03-11T14:21:13.805Z,3.03
2018-03-11T14:23:41.383Z,3.17
2018-03-11T14:26:08.882Z,3.03
2018-03-11T14:28:36.380Z,3.70
2018-03-11T14:31:03.885Z,2.83
2018-03-11T14:33:31.408Z,3.10
2018-03-11T14:35:59.123Z,3.10
2018-03-11T14:38:26.668Z,2.97
2018-03-11T14:40:54.948Z,3.07
2018-03-11T14:43:22.533Z,2.77
2018-03-11T14:45:50.812Z,2.93
2018-03-11T14:48:18.442Z,3.27
2018-03-11T14:50:46.013Z,3.40
2018-03-11T14:53:13.527Z,3.57
2018-03-11T14:55:41.085Z,3.37
2018-03-11T14:58:08.628Z,3.40
2018-03-11T15:00:36.148Z,3.70
2018-03-11T15:03:07.919Z,3.00
2018-03-11T15:05:36.216Z,4.10
2018-03-11T15:08:04.484Z,3.10
2018-03-11T15:10:32.010Z,4.30
2018-03-11T15:12:59.516Z,3.50
2018-03-11T15:15:27.049Z,3.40
2018-03-11T15:17:54.580Z,3.00
2018-03-11T15:20:23.025Z,4.00
2018-03-11T15:22:50.528Z,4.07
2018-03-11T15:25:18.053Z,5.43
2018-03-11T15:27:45.589Z,5.83
2018-03-11T15:30:13.872Z,5.40
2018-03-11T15:32:42.155Z,5.37
2018-03-11T15:35:09.701Z,5.90
2018-03-11T15:37:37.220Z,5.23
2018-03-11T15:40:04.783Z,5.50
2018-03-11T15:42:32.260Z,6.47
2018-03-11T15:44:59.812Z,5.20
2018-03-11T15:47:27.332Z,5.03
2018-03-11T15:49:54.848Z,5.37
2018-03-11T15:52:22.376Z,4.43
2018-03-11T15:54:49.896Z,4.50
2018-03-11T15:57:18.177Z,4.27
2018-03-11T15:59:45.762Z,4.17
2018-03-11T16:02:14.053Z,5.00
2018-03-11T16:04:42.356Z,4.80
2018-03-11T16:07:10.642Z,5.27
2018-03-11T16:09:38.973Z,4.67
2018-03-11T16:12:06.486Z,4.93
2018-03-11T16:14:34.785Z,4.97
2018-03-11T16:17:03.953Z,5.43
2018-03-11T16:19:31.467Z,5.87
2018-03-11T16:21:59.761Z,5.83
2018-03-11T16:24:28.969Z,5.77
2018-03-11T16:26:55.616Z,5.43
2018-03-11T16:29:25.261Z,6.23
2018-03-11T16:31:52.813Z,6.13
2018-03-11T16:34:20.317Z,6.60
2018-03-11T16:36:47.856Z,6.67
2018-03-11T16:39:16.456Z,7.40
2018-03-11T16:41:44.004Z,6.80
2018-03-11T16:44:12.292Z,6.77
2018-03-11T16:46:39.841Z,6.50
2018-03-11T16:49:07.374Z,7.27
2018-03-11T16:51:34.894Z,7.00
2018-03-11T16:54:02.414Z,7.27
2018-03-11T16:56:29.978Z,7.10
2018-03-11T16:58:57.553Z,7.30
2018-03-11T17:01:25.089Z,7.30
2018-03-11T17:03:52.784Z,7.97
2018-03-11T17:06:21.142Z,7.43
2018-03-11T17:08:48.592Z,7.40
2018-03-11T17:11:16.129Z,7.93
2018-03-11T17:13:43.740Z,7.83
2018-03-11T17:16:11.264Z,7.83
2018-03-11T17:18:39.569Z,7.63
2018-03-11T17:21:07.113Z,8.63
2018-03-11T17:23:34.592Z,8.50
2018-03-11T17:26:02.878Z,7.73
2018-03-11T17:28:31.936Z,7.60
2018-03-11T17:30:59.453Z,8.50
2018-03-11T17:33:27.748Z,8.87
2018-03-11T17:35:56.227Z,9.30
2018-03-11T17:38:24.593Z,9.30
2018-03-11T17:40:52.477Z,9.10
2018-03-11T17:43:20.008Z,8.60
2018-03-11T17:45:47.532Z,8.17
2018-03-11T17:48:15.061Z,7.93
2018-03-11T17:50:42.597Z,7.87
2018-03-11T17:53:10.948Z,9.03
2018-03-11T17:55:38.453Z,9.23
2018-03-11T17:58:06.773Z,9.37
2018-03-11T18:00:34.364Z,8.93
2018-03-11T18:03:01.901Z,8.43
2018-03-11T18:05:29.430Z,8.20
2018-03-11T18:07:56.953Z,9.27
2018-03-11T18:10:25.425Z,9.57
2018-03-11T18:12:53.688Z,8.57
2018-03-11T18:15:21.224Z,8.80
2018-03-11T18:17:48.762Z,9.67
2018-03-11T18:20:16.284Z,8.50
2018-03-11T18:22:44.030Z,9.27
2018-03-11T18:25:11.683Z,7.67
2018-03-11T18:27:39.249Z,7.90
2018-03-11T18:30:07.550Z,8.27
2018-03-11T18:32:42.229Z,8.67
2018-03-11T18:35:09.896Z,9.03
2018-03-11T18:37:37.492Z,8.10
2018-03-11T18:40:05.049Z,9.03
2018-03-11T18:42:32.622Z,8.23
2018-03-11T18:45:00.129Z,9.03
2018-03-11T18:47:28.528Z,8.57
2018-03-11T18:49:57.018Z,9.00
2018-03-11T18:52:25.281Z,9.33
2018-03-11T18:54:52.806Z,9.20
2018-03-11T18:57:20.353Z,9.00
2018-03-11T18:59:48.676Z,9.53
2018-03-11T19:02:16.407Z,9.57
2018-03-11T19:04:44.698Z,10.07
2018-03-11T19:07:12.986Z,9.33
2018-03-11T19:09:46.170Z,9.77
2018-03-11T19:12:14.577Z,10.40
2018-03-11T19:14:42.881Z,9.83
2018-03-11T19:17:11.190Z,10.03
2018-03-11T19:19:39.279Z,9.87
2018-03-11T19:22:06.943Z,9.93
2018-03-11T19:24:34.557Z,10.10
2018-03-11T19:27:02.412Z,9.87
2018-03-11T19:29:30.033Z,10.90
2018-03-11T19:31:57.812Z,11.97
2018-03-11T19:34:25.372Z,11.80
2018-03-11T19:36:53.953Z,11.10
2018-03-11T19:39:21.814Z,12.50
2018-03-11T19:41:49.423Z,12.00
2018-03-11T19:44:17.000Z,11.87
2018-03-11T19:46:45.509Z,10.43
2018-03-11T19:49:13.805Z,9.80
2018-03-11T19:51:42.167Z,10.77
2018-03-11T19:54:10.489Z,9.63
2018-03-11T19:56:38.776Z,10.30
2018-03-11T19:59:07.065Z,9.20
2018-03-11T20:01:35.373Z,9.60
2018-03-11T20:04:02.933Z,10.47
2018-03-11T20:06:30.566Z,11.10
2018-03-11T20:08:58.092Z,11.47
2018-03-11T20:11:25.880Z,11.53
2018-03-11T20:13:53.485Z,10.73
2018-03-11T20:16:21.104Z,10.93
2018-03-11T20:18:48.951Z,10.23
2018-03-11T20:21:24.153Z,11.37
2018-03-11T20:23:52.655Z,11.77
2018-03-11T20:26:20.157Z,11.07
2018-03-11T20:28:47.720Z,11.60
2018-03-11T20:31:15.257Z,10.97
2018-03-11T20:33:42.800Z,12.50
2018-03-11T20:36:11.416Z,11.00
2018-03-11T20:38:39.065Z,10.00
2018-03-11T20:41:07.393Z,11.60
2018-03-11T20:43:35.817Z,12.10
2018-03-11T20:46:04.245Z,10.57
2018-03-11T20:48:52.999Z,11.83
2018-03-11T20:51:21.296Z,13.17
2018-03-11T20:53:49.613Z,12.50
2018-03-11T20:56:17.163Z,11.67
2018-03-11T20:58:47.744Z,9.77
2018-03-11T21:01:15.419Z,11.00
2018-03-11T21:03:43.853Z,11.80
2018-03-11T21:06:11.377Z,12.30
2018-03-11T21:08:38.892Z,11.53
2018-03-11T21:11:06.475Z,11.97
2018-03-11T21:13:34.760Z,11.83
2018-03-11T21:16:03.061Z,10.90
2018-03-11T21:18:30.908Z,11.93
2018-03-11T21:20:58.467Z,11.63
2018-03-11T21:23:25.990Z,13.17
2018-03-11T21:25:53.520Z,12.13
2018-03-11T21:28:21.058Z,11.97
2018-03-11T21:30:48.585Z,12.47
2018-03-11T21:33:16.888Z,12.70
2018-03-11T21:35:45.164Z,13.83
2018-03-11T21:38:13.450Z,14.03
2018-03-11T21:40:41.029Z,13.10
2018-03-11T21:43:08.734Z,9.73
2018-03-11T21:45:36.220Z,11.17
2018-03-11T21:48:03.805Z,12.30
2018-03-11T21:50:31.533Z,12.17
2018-03-11T21:52:59.821Z,11.97
2018-03-11T21:55:28.100Z,13.40
2018-03-11T21:57:55.628Z,13.33
2018-03-11T22:00:23.166Z,12.03
2018-03-11T22:02:50.711Z,11.40
2018-03-11T22:05:18.371Z,11.90
2018-03-11T22:07:58.569Z,10.63
2018-03-11T22:10:26.864Z,12.13
2018-03-11T22:12:54.390Z,11.80
2018-03-11T22:15:21.901Z,13.70
2018-03-11T22:17:50.213Z,13.33
2018-03-11T22:20:17.804Z,14.57
2018-03-11T22:22:45.277Z,14.47
2018-03-11T22:25:16.477Z,14.10
2018-03-11T22:27:44.155Z,12.53
2018-03-11T22:30:12.508Z,14.87
2018-03-11T22:32:40.033Z,12.73
2018-03-11T22:35:07.569Z,7.83
2018-03-11T22:37:35.152Z,11.97
2018-03-11T22:40:02.671Z,11.97
2018-03-11T22:42:30.187Z,12.03
2018-03-11T22:44:57.716Z,10.77
2018-03-11T22:47:25.205Z,7.50
2018-03-11T22:49:52.729Z,9.57
2018-03-11T22:52:20.236Z,9.83
2018-03-11T22:54:47.765Z,11.90
2018-03-11T22:57:15.280Z,10.20
2018-03-11T22:59:42.857Z,10.57
2018-03-11T23:02:10.371Z,11.57
2018-03-11T23:04:38.652Z,9.67
2018-03-11T23:07:06.955Z,11.03
2018-03-11T23:09:35.245Z,10.13
2018-03-11T23:12:03.542Z,9.00
2018-03-11T23:14:31.080Z,9.07
2018-03-11T23:16:58.615Z,10.33
2018-03-11T23:19:26.136Z,10.50
2018-03-11T23:21:53.673Z,9.77
2018-03-11T23:24:21.179Z,9.60
2018-03-11T23:26:49.492Z,10.50
2018-03-11T23:29:17.046Z,10.37
2018-03-11T23:31:45.336Z,10.53
2018-03-11T23:34:13.593Z,8.87
2018-03-11T23:36:41.145Z,6.33
2018-03-11T23:39:08.676Z,9.33
2018-03-11T23:41:37.009Z,7.83
2018-03-11T23:44:04.525Z,10.07
2018-03-11T23:46:32.805Z,11.70
2018-03-11T23:49:00.296Z,11.33
2018-03-11T23:51:27.810Z,10.27
2018-03-11T23:53:55.338Z,10.00
2018-03-11T23:56:22.872Z,10.93
2018-03-11T23:58:50.352Z,10.60
